Time;durP1;ratioP1;P1;durP2;ratioP2;P2;SDS_P1;SDS_P2;PMS_P1;PMS_P2;Temp;Humidity;BMP_temperature;BMP_pressure;BME280_temperature;BME280_humidity;BME280_pressure;Samples;Min_cycle;Max_cycle;Signal;HPM_P1;HPM_P2
2022/09/14 00:03:38;;;;;;;6.15;3.97;;;;;;;16.78;100.00;99592.75;10134287;29;20123;-67
2022/09/14 00:08:39;;;;;;;7.60;3.67;;;;;;;17.07;100.00;99641.25;10135355;29;20135;-67
2022/09/14 00:13:43;;;;;;;5.35;2.92;;;;;;;17.14;100.00;99647.38;10135430;29;20060;-67
2022/09/14 00:18:44;;;;;;;5.70;2.35;;;;;;;17.03;100.00;99654.31;10134815;29;20049;-67
2022/09/14 00:35:27;;;;;;;4.35;1.83;;;;;;;16.94;100.00;99631.53;10482434;28;20454;-70
2022/09/14 00:40:28;;;;;;;3.20;2.00;;;;;;;16.57;100.00;99619.97;10474037;27;20449;-69
2022/09/14 00:45:29;;;;;;;4.57;2.13;;;;;;;16.58;100.00;99610.91;10440701;28;20098;-69
2022/09/14 00:50:31;;;;;;;6.22;2.20;;;;;;;16.74;100.00;99663.94;10440008;28;20505;-69
2022/09/14 00:55:32;;;;;;;12.13;2.63;;;;;;;16.69;100.00;99665.63;10440786;28;20515;-68
2022/09/14 01:00:33;;;;;;;4.72;2.00;;;;;;;16.69;100.00;99679.88;10440607;28;20048;-68
2022/09/14 01:05:52;;;;;;;3.47;2.10;;;;;;;16.60;100.00;99651.72;10439906;28;20591;-69
2022/09/14 01:11:03;;;;;;;3.50;1.85;;;;;;;16.54;100.00;99671.38;10437786;28;20068;-70
2022/09/14 01:16:30;;;;;;;3.20;1.58;;;;;;;16.47;100.00;99687.53;10434279;28;20055;-69
2022/09/14 01:21:37;;;;;;;4.88;2.00;;;;;;;16.38;100.00;99691.56;10437111;28;20053;-69
2022/09/14 01:27:15;;;;;;;5.18;1.77;;;;;;;16.50;100.00;99691.66;10439468;28;20085;-69
2022/09/14 01:32:25;;;;;;;6.53;1.77;;;;;;;16.34;100.00;99636.78;10434791;28;20136;-69
2022/09/14 01:37:35;;;;;;;6.10;2.10;;;;;;;16.47;100.00;99657.25;10412401;28;20076;-69
2022/09/14 01:42:39;;;;;;;5.07;2.40;;;;;;;16.42;100.00;99650.69;10411457;28;20094;-69
2022/09/14 01:47:48;;;;;;;4.80;1.90;;;;;;;16.27;100.00;99628.78;10412042;28;20048;-69
2022/09/14 01:52:59;;;;;;;4.10;2.30;;;;;;;16.43;100.00;99673.78;10411343;28;20435;-70
2022/09/14 01:58:11;;;;;;;9.73;5.32;;;;;;;16.16;100.00;99641.06;10411803;28;20061;-71
2022/09/14 02:03:17;;;;;;;5.13;2.67;;;;;;;16.36;100.00;99678.41;10412021;28;20405;-70
2022/09/14 02:08:18;;;;;;;5.07;2.72;;;;;;;15.97;100.00;99618.78;10411377;28;20052;-71
2022/09/14 02:13:19;;;;;;;5.60;2.60;;;;;;;16.33;100.00;99684.19;10411024;28;20033;-71
2022/09/14 02:18:20;;;;;;;9.25;2.67;;;;;;;16.31;100.00;99686.28;10411756;28;20041;-71
2022/09/14 02:23:22;;;;;;;11.70;2.92;;;;;;;16.37;100.00;99696.09;10410175;28;20053;-72
2022/09/14 02:28:22;;;;;;;6.03;2.58;;;;;;;16.29;100.00;99682.97;10410366;28;20416;-70
2022/09/14 02:33:52;;;;;;;5.00;2.85;;;;;;;16.50;100.00;99703.19;10409180;28;20057;-71
2022/09/14 02:39:10;;;;;;;5.68;2.95;;;;;;;16.35;100.00;99681.28;10404897;28;20045;-70
2022/09/14 02:44:34;;;;;;;4.05;2.85;;;;;;;16.51;100.00;99704.00;10402710;28;20057;-70
2022/09/14 02:49:55;;;;;;;4.00;2.95;;;;;;;16.44;100.00;99709.44;10403220;28;20449;-71
2022/09/14 02:55:06;;;;;;;10.63;3.17;;;;;;;16.48;100.00;99724.03;10402389;28;20091;-70
2022/09/14 03:00:07;;;;;;;12.63;3.17;;;;;;;16.21;100.00;99677.91;10402567;28;20046;-70
2022/09/14 03:05:08;;;;;;;7.45;2.47;;;;;;;16.42;100.00;99719.53;10401067;28;20046;-69
2022/09/14 03:10:09;;;;;;;6.05;2.90;;;;;;;16.05;100.00;99671.25;10403266;28;20038;-70
2022/09/14 03:15:10;;;;;;;10.40;4.03;;;;;;;16.44;100.00;99730.88;10401254;28;20454;-69
2022/09/14 03:20:12;;;;;;;19.73;3.95;;;;;;;16.10;100.00;99657.22;10403051;28;20741;-68
2022/09/14 03:25:13;;;;;;;6.50;3.33;;;;;;;16.53;100.00;99771.63;10400084;28;20069;-69
2022/09/14 03:30:14;;;;;;;49.58;6.03;;;;;;;16.15;100.00;99705.56;10305109;28;20062;-71
2022/09/14 03:35:16;;;;;;;8.45;3.40;;;;;;;16.40;100.00;99749.28;10311922;28;20485;-67
2022/09/14 03:40:17;;;;;;;7.65;3.10;;;;;;;16.51;100.00;99771.03;10323647;28;20126;-67
2022/09/14 03:45:19;;;;;;;16.25;3.88;;;;;;;16.53;100.00;99751.00;10324752;28;20444;-67
2022/09/14 03:50:21;;;;;;;7.32;2.58;;;;;;;16.37;100.00;99727.44;10327076;28;20042;-69
2022/09/14 03:55:22;;;;;;;4.75;2.78;;;;;;;16.39;100.00;99736.06;10325968;28;20050;-70
2022/09/14 04:00:22;;;;;;;4.50;2.88;;;;;;;16.31;100.00;99739.88;10326547;28;20069;-68
2022/09/14 04:05:23;;;;;;;8.60;3.40;;;;;;;16.24;100.00;99712.28;10326295;28;20038;-68
2022/09/14 04:10:24;;;;;;;4.85;2.70;;;;;;;16.49;100.00;99747.13;10325976;28;20121;-68
2022/09/14 04:15:25;;;;;;;8.40;4.35;;;;;;;16.03;100.00;99667.97;10325466;28;20126;-69
2022/09/14 04:20:26;;;;;;;5.45;3.33;;;;;;;16.28;100.00;99692.06;10325337;28;20038;-69
2022/09/14 04:25:26;;;;;;;27.02;4.70;;;;;;;16.73;100.00;99750.00;10324825;28;20038;-71
2022/09/14 04:30:27;;;;;;;10.05;3.28;;;;;;;16.82;100.00;99765.59;10323322;28;20043;-69
2022/09/14 04:35:28;;;;;;;15.77;3.38;;;;;;;16.77;100.00;99741.28;10309985;28;20042;-70
2022/09/14 04:40:29;;;;;;;7.25;3.22;;;;;;;16.80;100.00;99722.06;10320147;28;20054;-69
2022/09/14 04:45:29;;;;;;;5.50;3.05;;;;;;;17.05;100.00;99774.81;10296807;28;20034;-69
2022/09/14 04:50:31;;;;;;;7.30;2.92;;;;;;;16.68;100.00;99723.81;10279903;28;20050;-69
2022/09/14 04:55:32;;;;;;;5.00;3.10;;;;;;;17.10;100.00;99788.41;10280581;28;20038;-70
2022/09/14 05:00:34;;;;;;;6.40;3.40;;;;;;;16.70;100.00;99740.53;10284171;28;20134;-69
2022/09/14 05:05:37;;;;;;;7.25;3.13;;;;;;;17.06;100.00;99801.44;10284297;28;20387;-69
2022/09/14 05:10:38;;;;;;;7.65;3.70;;;;;;;17.05;100.00;99798.97;10289782;28;20053;-69
2022/09/14 05:15:38;;;;;;;8.90;3.85;;;;;;;17.26;100.00;99836.13;10291707;28;20529;-69
2022/09/14 05:20:39;;;;;;;6.40;4.10;;;;;;;17.33;100.00;99833.34;10290640;28;20062;-69
2022/09/14 05:25:40;;;;;;;10.95;4.50;;;;;;;17.47;100.00;99834.84;10290554;28;20047;-69
2022/09/14 05:30:40;;;;;;;27.05;4.53;;;;;;;17.62;100.00;99847.88;10290662;28;20448;-69
2022/09/14 05:35:41;;;;;;;6.93;4.00;;;;;;;17.66;100.00;99845.56;10290836;28;20518;-69
2022/09/14 05:40:42;;;;;;;5.38;3.60;;;;;;;17.57;100.00;99845.03;10290685;28;20391;-69
2022/09/14 05:45:43;;;;;;;6.80;4.40;;;;;;;17.60;100.00;99871.44;10290470;28;20450;-69
2022/09/14 05:50:44;;;;;;;6.68;4.32;;;;;;;17.67;100.00;99876.72;10290433;28;20050;-69
2022/09/14 05:55:44;;;;;;;7.68;3.83;;;;;;;17.62;100.00;99874.72;10289943;28;20043;-69
2022/09/14 06:00:45;;;;;;;6.70;4.60;;;;;;;17.76;100.00;99897.69;10289461;28;20141;-69
2022/09/14 06:20:13;;;;;;;5.80;3.35;;;;;;;18.51;100.00;99872.25;10482581;28;20379;-69
2022/09/14 06:25:14;;;;;;;5.63;3.10;;;;;;;18.39;100.00;99823.81;10483065;28;20121;-69
2022/09/14 06:30:15;;;;;;;4.32;3.13;;;;;;;18.92;100.00;99889.41;10482798;28;20118;-69
2022/09/14 06:35:16;;;;;;;10.98;4.35;;;;;;;18.99;100.00;99882.03;10483016;28;20093;-69
2022/09/14 06:40:16;;;;;;;7.43;6.68;;;;;;;19.11;100.00;99893.59;10482644;28;20459;-69
2022/09/14 06:45:17;;;;;;;11.38;9.30;;;;;;;19.03;100.00;99885.91;10481874;28;20080;-69
2022/09/14 06:50:18;;;;;;;15.75;9.13;;;;;;;19.09;100.00;99881.47;10481137;28;20068;-69
2022/09/14 06:55:19;;;;;;;10.90;9.77;;;;;;;19.21;100.00;99887.66;10481779;28;20048;-69
2022/09/14 07:00:20;;;;;;;12.65;9.73;;;;;;;19.26;100.00;99874.28;10481316;28;20089;-67
2022/09/14 07:05:21;;;;;;;12.48;10.98;;;;;;;19.45;100.00;99874.97;10481720;28;20093;-68
2022/09/14 07:10:26;;;;;;;12.75;9.85;;;;;;;19.64;100.00;99886.38;10480943;28;20084;-68
2022/09/14 07:15:27;;;;;;;10.48;9.35;;;;;;;19.64;100.00;99866.72;10481470;28;20037;-68
2022/09/14 07:20:28;;;;;;;10.52;9.43;;;;;;;19.33;100.00;99796.06;10457296;28;20064;-68
2022/09/14 07:25:29;;;;;;;27.20;14.35;;;;;;;19.48;100.00;99788.28;10453217;28;20381;-68
2022/09/14 07:30:29;;;;;;;19.48;12.73;;;;;;;20.11;99.92;99850.38;10453340;28;20613;-68
2022/09/14 07:35:31;;;;;;;13.85;12.45;;;;;;;20.18;98.01;99865.31;10452984;28;20041;-68
2022/09/14 07:40:32;;;;;;;13.45;12.05;;;;;;;19.81;96.36;99730.16;10453260;28;20069;-68
2022/09/14 07:45:34;;;;;;;14.82;13.25;;;;;;;20.83;93.69;99774.09;10452065;28;20049;-68
2022/09/14 07:50:35;;;;;;;13.80;11.65;;;;;;;21.28;91.65;99798.16;10452551;28;20037;-68
2022/09/14 07:55:40;;;;;;;11.88;10.68;;;;;;;21.35;87.59;99847.41;10452396;28;20060;-68
2022/09/14 08:00:40;;;;;;;11.23;10.20;;;;;;;21.21;88.31;99859.69;10452259;28;20040;-68
2022/09/14 08:05:41;;;;;;;16.95;11.02;;;;;;;20.76;87.99;99782.38;10451606;28;20403;-68
2022/09/14 08:10:42;;;;;;;13.65;9.32;;;;;;;20.75;86.96;99796.91;10451290;28;20043;-68
2022/09/14 08:15:43;;;;;;;10.35;9.23;;;;;;;21.06;85.92;99873.78;10451024;28;20072;-68
2022/09/14 08:20:44;;;;;;;12.30;8.80;;;;;;;20.86;86.19;99876.19;10451570;28;20131;-68
2022/09/14 08:25:44;;;;;;;9.15;8.25;;;;;;;20.41;86.23;99831.19;10451470;28;20044;-67
2022/09/14 08:30:46;;;;;;;10.25;7.75;;;;;;;20.42;86.30;99870.59;10449524;28;20049;-68
2022/09/14 08:35:46;;;;;;;14.77;8.18;;;;;;;20.52;86.89;99893.22;10451125;28;20124;-68
2022/09/14 08:40:50;;;;;;;8.63;7.75;;;;;;;20.72;86.30;99887.31;10450398;28;20123;-68
2022/09/14 08:45:56;;;;;;;10.70;9.20;;;;;;;20.89;85.01;99906.19;10450988;28;20076;-68
2022/09/14 08:50:57;;;;;;;10.57;9.57;;;;;;;21.12;85.63;99890.84;10451127;28;20073;-70
2022/09/14 08:56:12;;;;;;;9.88;8.35;;;;;;;21.61;81.35;99896.41;10450321;28;20072;-67
2022/09/14 09:01:28;;;;;;;11.20;8.25;;;;;;;21.75;81.29;99913.09;10448974;28;20041;-68
2022/09/14 09:06:47;;;;;;;9.00;8.10;;;;;;;22.03;79.87;99907.44;10449416;28;20047;-67
2022/09/14 09:11:51;;;;;;;5.85;5.35;;;;;;;22.13;76.46;99928.38;10449263;28;20489;-67
2022/09/14 09:16:55;;;;;;;4.47;3.22;;;;;;;22.06;73.50;99930.47;10449873;28;20144;-67
2022/09/14 09:21:58;;;;;;;4.32;3.40;;;;;;;21.82;74.03;99935.31;10449140;28;20124;-69
2022/09/14 09:27:00;;;;;;;5.43;4.27;;;;;;;21.06;75.55;99892.69;10448860;28;20516;-68
2022/09/14 09:32:03;;;;;;;5.95;4.68;;;;;;;21.15;76.72;99949.81;10449763;28;20045;-68
2022/09/14 09:37:04;;;;;;;7.67;4.90;;;;;;;21.29;76.02;99953.78;10448573;28;20113;-68
2022/09/14 09:42:18;;;;;;;3.88;3.47;;;;;;;21.33;72.42;99963.03;10448700;28;20267;-68
2022/09/14 09:47:36;;;;;;;5.60;3.60;;;;;;;21.56;73.25;99978.25;10448148;28;20492;-67
2022/09/14 09:52:37;;;;;;;6.22;3.15;;;;;;;21.79;71.80;99971.78;10448804;28;20037;-67
2022/09/14 09:57:38;;;;;;;3.17;2.40;;;;;;;21.97;70.10;99957.13;10447441;28;20447;-67
2022/09/14 10:02:40;;;;;;;5.13;1.75;;;;;;;22.50;67.76;99957.47;10448842;28;20483;-68
2022/09/14 10:07:49;;;;;;;3.25;1.02;;;;;;;22.63;64.60;99962.47;10448191;28;20491;-67
2022/09/14 10:12:53;;;;;;;1.17;0.68;;;;;;;22.42;64.11;99961.44;10448281;28;20068;-67
2022/09/14 10:17:54;;;;;;;1.35;0.80;;;;;;;22.45;64.40;99958.22;10447952;28;20089;-67
2022/09/14 10:22:55;;;;;;;3.85;0.90;;;;;;;23.11;62.40;99938.22;10447504;28;20082;-68
2022/09/14 10:27:59;;;;;;;4.25;0.95;;;;;;;23.84;60.06;99941.91;10448080;28;20045;-69
2022/09/14 10:33:01;;;;;;;;;;;;;;;24.31;61.80;99945.56;10447573;28;20548;-68
2022/09/14 10:38:23;;;;;;;27.95;2.20;;;;;;;23.88;56.67;99879.78;10447599;28;20295;-69
2022/09/14 10:44:01;;;;;;;11.95;1.88;;;;;;;23.47;58.70;99828.91;10447509;28;20086;-68
2022/09/14 10:49:31;;;;;;;1.75;1.02;;;;;;;23.94;57.59;99937.59;10446998;28;20052;-67
2022/09/14 10:54:53;;;;;;;1.17;0.70;;;;;;;24.02;56.18;99927.03;10451286;28;20048;-68
2022/09/14 10:59:59;;;;;;;4.20;1.20;;;;;;;23.95;57.47;99944.66;10453727;28;20112;-69
2022/09/14 11:05:17;;;;;;;1.38;0.90;;;;;;;24.14;56.24;99960.19;10453882;28;20049;-69
2022/09/14 11:10:28;;;;;;;3.22;1.30;;;;;;;23.96;55.67;99966.09;10453881;28;20048;-67
2022/09/14 11:15:40;;;;;;;3.20;1.23;;;;;;;24.07;55.79;99956.06;10453448;28;20048;-69
2022/09/14 11:21:10;;;;;;;4.13;1.40;;;;;;;24.05;56.63;99942.78;10453636;28;20044;-69
2022/09/14 11:26:36;;;;;;;2.10;1.45;;;;;;;24.11;55.65;99939.00;10443603;28;20057;-68
2022/09/14 11:31:51;;;;;;;4.53;1.50;;;;;;;24.06;55.85;99921.91;10447491;28;20049;-68
2022/09/14 11:36:57;;;;;;;2.30;1.38;;;;;;;23.91;55.53;99909.09;10453043;28;20096;-67
2022/09/14 11:42:03;;;;;;;3.05;1.27;;;;;;;24.06;55.21;99917.28;10452378;28;20176;-67
2022/09/14 11:47:16;;;;;;;3.30;1.30;;;;;;;24.18;55.05;99924.38;10452718;28;20047;-67
2022/09/14 11:52:20;;;;;;;22.20;2.13;;;;;;;23.84;56.76;99865.13;10452682;28;20037;-68
2022/09/14 11:57:25;;;;;;;9.50;1.83;;;;;;;24.32;55.49;99926.28;10452110;28;20037;-68
2022/09/14 12:02:26;;;;;;;3.40;1.40;;;;;;;24.43;54.95;99924.44;10452229;28;20135;-68
2022/09/14 12:07:57;;;;;;;7.45;1.48;;;;;;;24.53;53.98;99932.59;10452325;28;20132;-68
2022/09/14 12:13:18;;;;;;;3.08;1.30;;;;;;;24.39;54.88;99934.16;10449354;28;20512;-67
2022/09/14 12:18:22;;;;;;;3.30;1.10;;;;;;;24.40;53.92;99943.13;10450056;28;20064;-69
2022/09/14 12:23:28;;;;;;;6.80;1.25;;;;;;;24.46;54.90;99940.19;10430176;28;20037;-70
2022/09/14 12:28:37;;;;;;;2.30;1.00;;;;;;;24.55;53.99;99935.84;10424162;28;20572;-69
2022/09/14 12:33:38;;;;;;;2.35;1.25;;;;;;;24.35;53.92;99938.50;10430793;28;20481;-68
2022/09/14 12:38:56;;;;;;;3.53;1.10;;;;;;;24.33;52.24;99946.09;10449475;28;20136;-69
2022/09/14 12:43:57;;;;;;;2.30;1.33;;;;;;;24.10;54.41;99934.66;10450173;28;20049;-68
2022/09/14 12:49:13;;;;;;;2.78;1.67;;;;;;;23.91;54.94;99942.47;10450862;28;20048;-68
2022/09/14 12:54:30;;;;;;;8.98;1.65;;;;;;;23.78;54.23;99937.53;10447841;28;20128;-68
2022/09/14 12:59:36;;;;;;;2.65;1.23;;;;;;;23.79;53.16;99941.88;10449699;28;20089;-68
2022/09/14 13:04:38;;;;;;;2.80;1.23;;;;;;;23.14;54.37;99886.22;10449237;28;20515;-67
2022/09/14 13:09:46;;;;;;;3.85;1.20;;;;;;;23.59;53.26;99958.03;10448870;28;20044;-69
2022/09/14 13:14:54;;;;;;;2.63;0.93;;;;;;;23.49;54.11;99956.06;10448722;28;20140;-67
2022/09/14 13:20:02;;;;;;;3.53;1.05;;;;;;;23.76;52.70;99966.81;10450598;28;20106;-67
2022/09/14 13:25:03;;;;;;;3.58;1.20;;;;;;;23.62;54.51;99974.56;10448983;28;20445;-67
2022/09/14 13:30:17;;;;;;;2.30;0.88;;;;;;;23.47;54.23;99982.63;10445376;28;20074;-70
2022/09/14 13:35:50;;;;;;;7.30;1.30;;;;;;;23.39;55.65;99972.25;10443364;28;20045;-68
2022/09/14 13:40:52;;;;;;;;;;;;;;;23.43;56.04;99986.94;10448595;28;20524;-66
2022/09/14 13:45:54;;;;;;;21.02;2.75;;;;;;;22.64;58.28;99920.75;10448815;28;20279;-71
2022/09/14 13:50:55;;;;;;;20.48;2.10;;;;;;;22.72;58.86;99958.19;10449421;28;20120;-68
2022/09/14 13:55:56;;;;;;;120.85;8.55;;;;;;;22.84;59.94;100005.97;10447690;28;20064;-68
2022/09/14 14:01:03;;;;;;;46.33;4.28;;;;;;;22.60;60.90;99992.75;10448224;28;20111;-68
2022/09/14 14:06:25;;;;;;;6.38;1.70;;;;;;;22.50;61.49;99989.97;10448682;28;20041;-68
2022/09/14 14:11:34;;;;;;;6.30;2.00;;;;;;;22.39;62.45;99999.84;10446948;28;20041;-67
2022/09/14 14:16:35;;;;;;;7.78;2.03;;;;;;;22.33;62.68;100004.38;10447783;28;20061;-68
2022/09/14 14:21:35;;;;;;;41.15;3.03;;;;;;;22.24;64.20;100013.22;10448884;28;20555;-68
2022/09/14 14:26:36;;;;;;;46.65;3.85;;;;;;;22.00;64.77;99999.91;10447741;28;20056;-68
2022/09/14 14:31:37;;;;;;;8.25;1.65;;;;;;;21.56;64.79;99956.63;10454959;28;20044;-68
2022/09/14 14:36:38;;;;;;;18.27;2.78;;;;;;;21.83;65.28;100004.56;10455118;28;20052;-68
2022/09/14 14:41:39;;;;;;;6.20;1.63;;;;;;;22.10;64.77;100045.19;10455063;28;20041;-68
2022/09/14 14:46:41;;;;;;;11.80;3.90;;;;;;;21.76;63.67;99987.72;10455394;28;20045;-68
2022/09/14 14:51:42;;;;;;;10.02;8.73;;;;;;;21.53;61.09;99964.41;10453991;28;20041;-68
2022/09/14 14:56:45;;;;;;;19.15;4.47;;;;;;;21.61;63.16;100005.34;10453780;28;20041;-68
2022/09/14 15:01:51;;;;;;;3.93;2.17;;;;;;;21.76;60.91;100063.41;10453696;28;20452;-68
2022/09/14 15:06:52;;;;;;;33.22;3.60;;;;;;;21.57;63.15;100049.34;10453102;28;20040;-69
2022/09/14 15:11:53;;;;;;;54.85;4.80;;;;;;;21.64;62.96;100074.31;10452886;28;20040;-67
2022/09/14 15:16:58;;;;;;;6.70;1.77;;;;;;;21.43;63.21;100060.50;10453992;28;20144;-69
2022/09/14 15:21:59;;;;;;;12.98;4.85;;;;;;;21.05;64.28;100015.25;10454108;28;20072;-69
2022/09/14 15:27:00;;;;;;;21.27;2.90;;;;;;;21.06;67.18;100053.88;10452641;28;20156;-69
2022/09/14 15:32:01;;;;;;;39.47;4.20;;;;;;;21.08;68.84;100106.59;10452973;28;20400;-70
2022/09/14 15:37:02;;;;;;;17.17;5.03;;;;;;;20.61;68.81;100057.41;10451467;28;20135;-69
2022/09/14 15:42:03;;;;;;;9.57;3.80;;;;;;;20.85;70.46;100117.50;10452943;28;20123;-71
2022/09/14 15:47:03;;;;;;;14.25;2.95;;;;;;;20.78;70.23;100139.25;10452014;28;20044;-68
2022/09/14 15:52:04;;;;;;;13.05;2.55;;;;;;;20.29;72.10;100072.16;10452918;28;20449;-67
2022/09/14 15:57:09;;;;;;;26.20;2.72;;;;;;;20.15;75.00;100089.66;10449237;28;20173;-75
2022/09/14 16:02:11;;;;;;;16.67;1.75;;;;;;;20.25;74.72;100126.78;10365044;28;20055;-70
2022/09/14 16:07:12;;;;;;;6.88;1.58;;;;;;;20.20;75.11;100132.91;10329616;28;20072;-70
2022/09/14 16:12:13;;;;;;;11.23;1.48;;;;;;;20.21;75.92;100158.81;10319379;28;20445;-69
2022/09/14 16:17:14;;;;;;;22.70;2.50;;;;;;;20.15;75.70;100164.34;10297720;28;20067;-68
2022/09/14 16:22:15;;;;;;;9.25;1.70;;;;;;;19.94;75.81;100139.59;10318204;28;20035;-70
2022/09/14 16:27:16;;;;;;;16.27;2.58;;;;;;;19.95;76.53;100159.28;10303249;28;20046;-69
2022/09/14 16:32:17;;;;;;;11.07;2.33;;;;;;;19.80;77.46;100149.81;10310570;28;20043;-70
2022/09/14 16:37:17;;;;;;;6.15;1.88;;;;;;;19.71;77.24;100151.19;10318111;28;20042;-70
2022/09/14 16:42:19;;;;;;;7.47;1.95;;;;;;;19.38;77.29;100124.75;10297904;28;20047;-68
2022/09/14 16:47:20;;;;;;;19.55;2.35;;;;;;;19.26;77.71;100113.13;10306632;28;20038;-70
2022/09/14 16:52:20;;;;;;;7.70;2.80;;;;;;;19.66;78.33;100198.78;10299976;28;20047;-70
2022/09/14 16:57:21;;;;;;;6.85;2.10;;;;;;;19.63;78.97;100199.22;10313209;28;20070;-73
2022/09/14 17:02:22;;;;;;;16.70;7.40;;;;;;;19.19;79.52;100148.25;10310842;28;20390;-73
2022/09/14 17:07:23;;;;;;;13.80;4.88;;;;;;;19.03;79.96;100125.50;10318026;28;20070;-72
2022/09/14 17:12:24;;;;;;;25.67;4.65;;;;;;;19.01;79.86;100149.13;10326922;28;20038;-72
2022/09/14 17:17:24;;;;;;;12.70;2.90;;;;;;;19.22;80.56;100190.06;10345081;28;20064;-73
2022/09/14 17:22:25;;;;;;;6.03;1.45;;;;;;;19.26;80.48;100220.84;10343490;28;20568;-71
2022/09/14 17:27:26;;;;;;;9.43;2.67;;;;;;;18.66;81.19;100125.50;10343435;28;20404;-71
2022/09/14 17:32:27;;;;;;;9.77;1.75;;;;;;;19.21;82.17;100216.16;10348367;28;20045;-71
2022/09/14 17:37:27;;;;;;;5.60;1.75;;;;;;;18.98;82.74;100203.41;10341061;28;20451;-72
2022/09/14 17:42:28;;;;;;;28.75;10.38;;;;;;;19.15;81.85;100231.34;10345652;28;20041;-71
2022/09/14 17:47:29;;;;;;;34.75;12.82;;;;;;;19.13;81.13;100235.31;10341111;28;20132;-73
2022/09/14 17:52:30;;;;;;;24.90;8.30;;;;;;;19.20;80.30;100241.44;10346982;28;20042;-71
2022/09/14 17:57:31;;;;;;;6.93;3.30;;;;;;;18.83;79.76;100186.84;10342093;28;20512;-70
2022/09/14 18:02:31;;;;;;;6.50;2.60;;;;;;;19.12;78.94;100244.47;10343483;28;20498;-69
2022/09/14 18:07:33;;;;;;;4.45;1.60;;;;;;;18.99;77.94;100233.84;10341114;28;20038;-72
2022/09/14 18:12:35;;;;;;;3.28;1.20;;;;;;;19.03;77.71;100241.25;10352856;28;20409;-70
2022/09/14 18:17:36;;;;;;;6.28;1.52;;;;;;;18.50;78.13;100161.13;10342510;28;20056;-72
2022/09/14 18:22:37;;;;;;;9.77;1.60;;;;;;;18.93;77.63;100247.16;10367491;28;20057;-71
2022/09/14 18:27:38;;;;;;;10.65;2.83;;;;;;;19.01;78.99;100262.19;10347174;28;20446;-71
2022/09/14 18:32:39;;;;;;;13.77;3.75;;;;;;;18.96;80.17;100267.41;10354842;28;20413;-71
2022/09/14 18:37:40;;;;;;;6.32;2.63;;;;;;;18.83;80.18;100273.78;10365906;28;20049;-71
2022/09/14 18:42:41;;;;;;;9.95;2.13;;;;;;;18.52;79.95;100231.66;10364466;28;20033;-72
2022/09/14 18:47:42;;;;;;;6.63;1.48;;;;;;;18.65;79.64;100265.66;10358332;28;20046;-71
2022/09/14 18:52:43;;;;;;;5.65;1.40;;;;;;;18.64;79.47;100293.63;10324341;28;20521;-72
2022/09/14 18:57:47;;;;;;;3.30;1.30;;;;;;;18.46;79.25;100262.94;10324105;28;20418;-72
2022/09/14 19:02:52;;;;;;;3.65;1.33;;;;;;;18.50;80.22;100279.47;10324124;28;20097;-71
2022/09/14 19:07:53;;;;;;;8.18;2.97;;;;;;;17.54;78.74;100122.94;10324080;28;20050;-72
2022/09/14 19:12:54;;;;;;;8.15;3.50;;;;;;;18.54;75.55;100277.97;10330358;28;20030;-71
2022/09/14 19:17:55;;;;;;;4.75;2.60;;;;;;;18.66;73.62;100280.75;10358387;28;20409;-71
2022/09/14 19:22:56;;;;;;;3.13;1.50;;;;;;;18.81;71.66;100302.78;10363594;28;20050;-71
2022/09/14 19:27:57;;;;;;;3.00;1.25;;;;;;;18.88;70.49;100303.53;10363115;28;20188;-71
2022/09/14 19:32:58;;;;;;;4.30;1.20;;;;;;;18.90;69.95;100304.13;10356800;28;20046;-72
2022/09/14 19:37:59;;;;;;;2.70;1.23;;;;;;;18.95;69.55;100308.84;10324368;28;20046;-71
2022/09/14 19:43:00;;;;;;;3.33;1.17;;;;;;;18.59;69.44;100258.47;10323672;28;20046;-72
2022/09/14 19:48:01;;;;;;;3.40;1.17;;;;;;;18.16;69.06;100200.97;10324146;28;20046;-71
2022/09/14 19:53:02;;;;;;;2.50;1.15;;;;;;;18.25;68.96;100229.22;10324753;28;20058;-71
2022/09/14 19:58:03;;;;;;;4.63;1.58;;;;;;;18.37;69.08;100264.28;10323507;28;20053;-71
2022/09/14 20:03:04;;;;;;;5.45;1.40;;;;;;;18.68;69.02;100314.47;10323735;28;20068;-71
2022/09/14 20:08:05;;;;;;;2.42;1.00;;;;;;;18.71;69.21;100330.16;10323862;28;20075;-71
2022/09/14 20:13:06;;;;;;;3.50;1.20;;;;;;;18.62;69.21;100311.84;10322686;28;20040;-71
2022/09/14 20:18:06;;;;;;;2.90;1.23;;;;;;;18.54;69.44;100309.44;10322962;28;20726;-72
2022/09/14 20:23:07;;;;;;;5.40;1.60;;;;;;;18.00;69.88;100220.34;10323948;28;20614;-71
2022/09/14 20:28:08;;;;;;;3.35;1.30;;;;;;;18.57;70.24;100323.25;10328102;28;20046;-71
2022/09/14 20:33:09;;;;;;;9.50;2.47;;;;;;;18.53;72.04;100327.44;10327892;28;20121;-71
2022/09/14 20:38:10;;;;;;;8.75;3.30;;;;;;;18.37;73.58;100325.31;10328684;28;20050;-71
2022/09/14 20:43:10;;;;;;;7.93;3.17;;;;;;;18.31;74.89;100331.56;10328554;28;20049;-72
2022/09/14 20:48:11;;;;;;;10.90;4.07;;;;;;;17.69;75.16;100259.59;10328405;28;20042;-72
2022/09/14 20:53:12;;;;;;;8.32;2.63;;;;;;;18.08;74.98;100334.84;10328089;28;20485;-72
2022/09/14 20:58:13;;;;;;;3.40;1.80;;;;;;;17.88;75.00;100314.28;10327568;28;20054;-72
2022/09/14 21:03:14;;;;;;;3.25;1.50;;;;;;;17.84;74.48;100339.13;10333248;28;20050;-71
2022/09/14 21:08:14;;;;;;;3.13;1.63;;;;;;;17.85;74.27;100346.97;10348524;28;20680;-71
2022/09/14 21:13:16;;;;;;;2.90;1.70;;;;;;;17.68;74.05;100319.75;10343674;28;20042;-72
2022/09/14 21:18:17;;;;;;;3.53;1.40;;;;;;;17.71;74.12;100327.38;10367794;28;20420;-71
2022/09/14 21:23:18;;;;;;;2.30;1.40;;;;;;;17.75;74.13;100336.66;10336393;28;20491;-71
2022/09/14 21:28:19;;;;;;;3.05;1.60;;;;;;;17.86;74.60;100358.53;10327200;28;20125;-72
2022/09/14 21:33:19;;;;;;;3.50;1.30;;;;;;;17.70;75.18;100331.09;10327150;28;20049;-72
2022/09/14 21:38:20;;;;;;;5.45;1.80;;;;;;;17.73;75.37;100346.78;10326120;28;20068;-72
2022/09/14 21:43:21;;;;;;;8.02;1.75;;;;;;;17.78;75.78;100349.69;10326184;28;20062;-71
2022/09/14 21:48:22;;;;;;;2.35;1.40;;;;;;;17.68;76.23;100338.56;10326707;28;20046;-71
2022/09/14 21:53:23;;;;;;;5.75;1.63;;;;;;;17.63;77.47;100327.63;10326062;28;20039;-72
2022/09/14 21:58:24;;;;;;;2.90;1.67;;;;;;;17.66;77.85;100337.94;10325793;28;20046;-71
2022/09/14 22:03:25;;;;;;;2.65;1.85;;;;;;;17.28;77.86;100290.41;10325972;28;20079;-72
2022/09/14 22:08:30;;;;;;;3.10;1.63;;;;;;;17.52;79.35;100329.13;10326024;28;20049;-72
2022/09/14 22:13:30;;;;;;;;;;;;;;;17.64;79.34;100333.81;10325517;28;20042;-72
2022/09/14 22:18:31;;;;;;;3.40;1.35;;;;;;;17.26;79.24;100313.13;10324002;28;19921;-72
2022/09/14 22:23:33;;;;;;;4.38;1.75;;;;;;;17.30;79.70;100331.28;10325893;28;20133;-72
2022/09/14 22:28:41;;;;;;;2.33;1.48;;;;;;;17.19;80.64;100326.56;10325939;28;20050;-72
2022/09/14 22:33:42;;;;;;;4.15;1.80;;;;;;;17.13;81.12;100327.41;10325949;28;20046;-71
2022/09/14 22:38:44;;;;;;;6.78;2.00;;;;;;;16.70;81.97;100266.22;10324740;28;20056;-72
2022/09/14 22:43:46;;;;;;;9.05;2.90;;;;;;;16.96;83.08;100332.44;10324883;28;20548;-72
2022/09/14 22:48:47;;;;;;;3.97;1.98;;;;;;;16.99;83.79;100331.16;10326496;28;20050;-72
2022/09/14 22:53:49;;;;;;;6.32;1.90;;;;;;;16.65;83.95;100277.56;10331486;28;20078;-71
2022/09/14 22:58:50;;;;;;;4.88;2.75;;;;;;;16.97;82.85;100317.97;10331841;28;20049;-72
2022/09/14 23:03:57;;;;;;;2.92;2.00;;;;;;;16.75;82.19;100287.03;10331807;28;20099;-72
2022/09/14 23:08:59;;;;;;;4.20;2.20;;;;;;;16.93;81.89;100307.84;10330936;28;20050;-72
2022/09/14 23:14:00;;;;;;;6.03;2.17;;;;;;;16.79;81.88;100272.22;10342242;28;20061;-70
2022/09/14 23:19:02;;;;;;;4.95;2.22;;;;;;;16.94;81.26;100307.66;10331631;28;20097;-71
2022/09/14 23:24:06;;;;;;;4.95;2.58;;;;;;;17.05;80.86;100316.91;10330480;28;20042;-71
2022/09/14 23:29:14;;;;;;;4.53;2.50;;;;;;;16.82;80.35;100294.06;10330540;28;20053;-72
2022/09/14 23:34:15;;;;;;;7.75;2.33;;;;;;;16.97;80.05;100319.84;10340833;28;20042;-72
2022/09/14 23:39:16;;;;;;;17.45;3.42;;;;;;;16.89;81.32;100316.34;10329746;28;20051;-72
2022/09/14 23:44:17;;;;;;;8.48;2.75;;;;;;;16.43;82.18;100268.13;10329793;28;20045;-72
